createdAt,value
2019-05-25T00:02:11.514Z,19.20
2019-05-25T00:04:40.221Z,19.30
2019-05-25T00:07:08.957Z,19.00
2019-05-25T00:09:37.685Z,18.90
2019-05-25T00:12:06.581Z,19.10
2019-05-25T00:14:35.335Z,19.10
2019-05-25T00:17:03.991Z,19.10
2019-05-25T00:19:32.798Z,19.00
2019-05-25T00:22:01.800Z,18.90
2019-05-25T00:24:30.471Z,18.90
2019-05-25T00:26:59.175Z,18.90
2019-05-25T00:29:27.830Z,18.80
2019-05-25T00:31:56.522Z,18.70
2019-05-25T00:34:25.195Z,18.70
2019-05-25T00:36:53.963Z,18.70
2019-05-25T00:39:22.651Z,18.50
2019-05-25T00:41:51.408Z,18.60
2019-05-25T00:44:20.112Z,18.60
2019-05-25T00:46:48.815Z,18.60
2019-05-25T00:49:17.479Z,18.60
2019-05-25T00:51:46.202Z,18.60
2019-05-25T00:54:27.012Z,18.50
2019-05-25T00:56:45.287Z,18.30
2019-05-25T00:59:14.017Z,18.30
2019-05-25T01:01:42.670Z,18.30
2019-05-25T01:04:11.388Z,18.20
2019-05-25T01:06:40.057Z,18.40
2019-05-25T01:09:08.776Z,18.00
2019-05-25T01:11:37.444Z,18.10
2019-05-25T01:14:06.137Z,18.20
2019-05-25T01:16:34.810Z,18.20
2019-05-25T01:19:03.844Z,18.10
2019-05-25T01:21:33.315Z,17.90
2019-05-25T01:24:02.007Z,17.90
2019-05-25T01:26:30.703Z,18.00
2019-05-25T01:28:59.630Z,18.10
2019-05-25T01:31:28.342Z,17.90
2019-05-25T01:33:57.000Z,18.00
2019-05-25T01:36:25.709Z,18.00
2019-05-25T01:38:54.403Z,17.60
2019-05-25T01:41:23.370Z,17.60
2019-05-25T01:43:52.072Z,17.90
2019-05-25T01:46:20.772Z,17.60
2019-05-25T01:48:49.496Z,17.60
2019-05-25T01:51:18.203Z,17.50
2019-05-25T01:53:46.908Z,17.50
2019-05-25T01:56:15.625Z,17.40
2019-05-25T01:58:44.305Z,17.40
2019-05-25T02:01:12.983Z,17.40
2019-05-25T02:03:41.841Z,17.20
2019-05-25T02:06:10.559Z,17.20
2019-05-25T02:08:39.304Z,17.10
2019-05-25T02:11:08.135Z,17.20
2019-05-25T02:13:36.829Z,17.20
2019-05-25T02:16:05.522Z,17.30
2019-05-25T02:18:34.211Z,17.00
2019-05-25T02:21:02.879Z,16.70
2019-05-25T02:23:31.952Z,16.80
2019-05-25T02:26:00.612Z,17.00
2019-05-25T02:28:29.443Z,17.10
2019-05-25T02:30:58.113Z,17.00
2019-05-25T02:33:26.814Z,16.90
2019-05-25T02:35:55.493Z,17.10
2019-05-25T02:38:24.183Z,17.00
2019-05-25T02:40:52.842Z,16.90
2019-05-25T02:43:21.635Z,16.80
2019-05-25T02:45:50.311Z,16.60
2019-05-25T02:48:19.218Z,17.00
2019-05-25T02:50:48.218Z,16.90
2019-05-25T02:53:16.929Z,16.80
2019-05-25T02:55:45.860Z,16.60
2019-05-25T02:58:14.542Z,16.70
2019-05-25T03:00:43.216Z,16.60
2019-05-25T03:03:11.928Z,16.70
2019-05-25T03:05:40.938Z,16.60
2019-05-25T03:08:09.655Z,16.50
2019-05-25T03:10:38.457Z,16.80
2019-05-25T03:13:07.162Z,16.70
2019-05-25T03:15:35.898Z,16.40
2019-05-25T03:18:04.785Z,16.40
2019-05-25T03:20:33.466Z,16.40
2019-05-25T03:23:02.492Z,16.50
2019-05-25T03:25:31.228Z,16.50
2019-05-25T03:27:59.919Z,16.50
2019-05-25T03:30:33.929Z,16.60
2019-05-25T03:33:02.791Z,16.50
2019-05-25T03:35:31.665Z,16.30
2019-05-25T03:38:00.388Z,16.40
2019-05-25T03:40:29.366Z,16.30
2019-05-25T03:42:58.097Z,16.60
2019-05-25T03:45:26.779Z,16.50
2019-05-25T03:47:55.531Z,16.30
2019-05-25T03:50:24.193Z,16.30
2019-05-25T03:52:52.953Z,16.50
2019-05-25T03:55:21.624Z,16.30
2019-05-25T03:57:50.323Z,16.50
2019-05-25T04:00:30.516Z,16.60
2019-05-25T04:02:59.319Z,16.50
2019-05-25T04:05:27.977Z,16.40
2019-05-25T04:07:56.719Z,16.60
2019-05-25T04:10:25.382Z,16.60
2019-05-25T04:12:54.085Z,16.40
2019-05-25T04:15:22.791Z,16.80
2019-05-25T04:17:51.516Z,16.60
2019-05-25T04:20:20.227Z,16.70
2019-05-25T04:22:49.092Z,16.50
2019-05-25T04:25:18.234Z,16.80
2019-05-25T04:27:46.988Z,16.40
2019-05-25T04:30:16.095Z,16.60
2019-05-25T04:32:44.803Z,16.70
2019-05-25T04:35:13.628Z,16.60
2019-05-25T04:37:42.348Z,16.70
2019-05-25T04:40:11.244Z,16.90
2019-05-25T04:42:39.939Z,16.80
2019-05-25T04:45:09.239Z,17.00
2019-05-25T04:47:38.237Z,16.90
2019-05-25T04:50:08.762Z,17.00
2019-05-25T04:52:40.972Z,16.80
2019-05-25T04:55:08.267Z,17.00
2019-05-25T04:57:37.059Z,16.90
2019-05-25T05:00:06.839Z,16.70
2019-05-25T05:02:35.529Z,17.00
2019-05-25T05:05:08.020Z,16.90
2019-05-25T05:07:36.722Z,16.80
2019-05-25T05:10:07.221Z,16.90
2019-05-25T05:12:35.923Z,16.60
2019-05-25T05:15:06.413Z,16.40
2019-05-25T05:17:35.203Z,16.70
2019-05-25T05:20:05.581Z,16.50
2019-05-25T05:22:34.347Z,16.40
2019-05-25T05:25:03.226Z,16.40
2019-05-25T05:27:32.012Z,16.40
2019-05-25T05:30:00.797Z,16.40
2019-05-25T05:32:29.517Z,16.30
2019-05-25T05:34:58.193Z,16.20
2019-05-25T05:37:27.684Z,16.20
2019-05-25T05:39:57.643Z,16.30
2019-05-25T05:42:27.468Z,16.60
2019-05-25T05:44:57.339Z,16.70
2019-05-25T05:47:26.871Z,16.60
2019-05-25T05:49:55.935Z,16.60
2019-05-25T05:52:26.961Z,16.60
2019-05-25T05:54:58.819Z,16.50
2019-05-25T05:57:27.532Z,16.70
2019-05-25T05:59:56.223Z,16.40
2019-05-25T06:02:24.888Z,16.20
2019-05-25T06:04:53.578Z,16.30
2019-05-25T06:07:22.258Z,16.30
2019-05-25T06:09:50.943Z,16.20
2019-05-25T06:12:19.615Z,16.40
2019-05-25T06:14:48.274Z,16.20
2019-05-25T06:17:17.167Z,16.00
2019-05-25T06:19:45.838Z,15.90
2019-05-25T06:22:14.676Z,16.20
2019-05-25T06:24:43.463Z,16.10
2019-05-25T06:27:26.535Z,15.80
2019-05-25T06:29:42.713Z,15.90
2019-05-25T06:32:11.398Z,16.10
2019-05-25T06:34:40.189Z,15.80
2019-05-25T06:37:08.887Z,16.00
2019-05-25T06:39:37.627Z,16.00
2019-05-25T06:42:06.462Z,16.30
2019-05-25T06:44:35.236Z,16.00
2019-05-25T06:47:03.956Z,16.10
2019-05-25T06:49:32.641Z,16.20
2019-05-25T06:52:01.423Z,16.20
2019-05-25T06:54:30.130Z,16.10
2019-05-25T06:56:58.971Z,16.20
2019-05-25T06:59:27.943Z,16.20
2019-05-25T07:01:56.689Z,16.50
2019-05-25T07:04:25.372Z,16.40
2019-05-25T07:06:54.043Z,16.30
2019-05-25T07:09:23.487Z,16.40
2019-05-25T07:11:52.856Z,16.20
2019-05-25T07:14:21.553Z,16.40
2019-05-25T07:16:50.234Z,16.60
2019-05-25T07:19:19.489Z,16.60
2019-05-25T07:21:48.188Z,16.60
2019-05-25T07:24:16.978Z,16.70
2019-05-25T07:26:45.634Z,16.90
2019-05-25T07:29:14.329Z,16.90
2019-05-25T07:31:43.023Z,17.10
2019-05-25T07:34:11.727Z,16.90
2019-05-25T07:36:40.442Z,17.30
2019-05-25T07:39:09.147Z,17.20
2019-05-25T07:41:37.835Z,17.40
2019-05-25T07:44:06.584Z,17.30
2019-05-25T07:46:35.301Z,17.30
2019-05-25T07:49:04.019Z,17.60
2019-05-25T07:51:32.895Z,17.70
2019-05-25T07:54:01.625Z,17.80
2019-05-25T07:56:30.283Z,17.60
2019-05-25T07:58:59.049Z,17.70
2019-05-25T08:01:27.754Z,17.70
2019-05-25T08:03:56.423Z,17.90
2019-05-25T08:06:25.127Z,18.10
2019-05-25T08:08:53.975Z,18.10
2019-05-25T08:11:22.653Z,18.20
2019-05-25T08:13:51.498Z,18.40
2019-05-25T08:16:20.314Z,18.10
2019-05-25T08:18:48.993Z,18.00
2019-05-25T08:21:17.676Z,18.10
2019-05-25T08:23:46.392Z,18.10
2019-05-25T08:26:15.056Z,18.40
2019-05-25T08:28:43.942Z,18.10
2019-05-25T08:31:12.637Z,17.70
2019-05-25T08:33:41.520Z,17.80
2019-05-25T08:36:10.215Z,17.90
2019-05-25T08:38:38.921Z,17.80
2019-05-25T08:41:07.658Z,17.70
2019-05-25T08:43:36.437Z,17.70
2019-05-25T08:46:05.559Z,17.50
2019-05-25T08:48:34.475Z,17.50
2019-05-25T08:51:03.402Z,17.40
2019-05-25T08:53:41.127Z,17.70
2019-05-25T08:56:02.521Z,18.00
2019-05-25T08:58:31.203Z,18.00
2019-05-25T09:00:59.928Z,17.80
2019-05-25T09:03:28.607Z,17.70
2019-05-25T09:05:57.357Z,17.80
2019-05-25T09:08:26.072Z,18.00
2019-05-25T09:10:54.771Z,17.90
2019-05-25T09:13:23.455Z,17.80
2019-05-25T09:15:52.220Z,18.10
2019-05-25T09:18:21.119Z,17.90
2019-05-25T09:20:49.887Z,18.30
2019-05-25T09:23:18.862Z,18.50
2019-05-25T09:25:47.780Z,18.60
2019-05-25T09:28:16.518Z,18.30
2019-05-25T09:30:45.187Z,18.40
2019-05-25T09:33:14.067Z,18.20
2019-05-25T09:35:42.814Z,18.30
2019-05-25T09:38:11.530Z,18.60
2019-05-25T09:40:40.259Z,18.80
2019-05-25T09:43:08.951Z,18.90
2019-05-25T09:45:37.668Z,19.00
2019-05-25T09:48:06.342Z,19.00
2019-05-25T09:50:35.030Z,18.90
2019-05-25T09:53:03.934Z,19.10
2019-05-25T09:55:32.638Z,19.30
2019-05-25T09:58:01.304Z,19.40
2019-05-25T10:00:30.015Z,19.50
2019-05-25T10:02:58.732Z,19.50
2019-05-25T10:05:27.402Z,19.40
2019-05-25T10:07:56.102Z,19.60
2019-05-25T10:10:24.807Z,19.70
2019-05-25T10:12:53.488Z,19.70
2019-05-25T10:15:22.251Z,19.50
2019-05-25T10:17:51.207Z,19.20
2019-05-25T10:20:20.303Z,18.90
2019-05-25T10:22:48.991Z,18.90
2019-05-25T10:25:18.267Z,19.10
2019-05-25T10:27:47.007Z,19.30
2019-05-25T10:30:16.433Z,19.20
2019-05-25T10:32:45.145Z,19.00
2019-05-25T10:35:14.757Z,19.10
2019-05-25T10:37:43.465Z,19.60
2019-05-25T10:40:12.215Z,19.30
2019-05-25T10:42:40.895Z,19.70
2019-05-25T10:45:10.501Z,19.50
2019-05-25T10:47:39.182Z,19.40
2019-05-25T10:50:09.018Z,19.40
2019-05-25T10:52:37.806Z,19.50
2019-05-25T10:55:09.202Z,19.50
2019-05-25T10:57:38.504Z,19.50
2019-05-25T11:00:12.056Z,19.30
2019-05-25T11:02:40.726Z,19.60
2019-05-25T11:05:10.457Z,19.50
2019-05-25T11:07:39.130Z,19.50
2019-05-25T11:10:09.921Z,20.20
2019-05-25T11:12:38.607Z,20.10
2019-05-25T11:15:08.479Z,20.00
2019-05-25T11:17:37.196Z,20.20
2019-05-25T11:20:11.568Z,20.20
2019-05-25T11:22:40.233Z,19.90
2019-05-25T11:25:10.240Z,20.00
2019-05-25T11:27:40.053Z,19.80
2019-05-25T11:30:11.272Z,19.80
2019-05-25T11:32:40.172Z,19.90
2019-05-25T11:35:10.370Z,20.00
2019-05-25T11:37:39.057Z,20.10
2019-05-25T11:40:12.526Z,20.10
2019-05-25T11:42:41.207Z,20.10
2019-05-25T11:45:12.033Z,20.20
2019-05-25T11:47:40.738Z,20.10
2019-05-25T11:50:10.651Z,20.10
2019-05-25T11:52:39.562Z,20.20
2019-05-25T11:55:09.418Z,20.20
2019-05-25T11:57:38.124Z,20.10
2019-05-25T12:00:24.919Z,20.00
2019-05-25T12:02:45.908Z,20.00
2019-05-25T12:05:15.199Z,20.00
2019-05-25T12:07:45.025Z,20.10
2019-05-25T12:10:14.627Z,20.30
2019-05-25T12:12:43.326Z,20.40
2019-05-25T12:15:12.493Z,20.20
2019-05-25T12:17:41.194Z,20.00
2019-05-25T12:20:11.217Z,20.20
2019-05-25T12:22:40.002Z,20.20
2019-05-25T12:25:09.198Z,20.10
2019-05-25T12:27:38.200Z,19.90
2019-05-25T12:30:08.377Z,20.30
2019-05-25T12:32:37.341Z,20.50
2019-05-25T12:35:25.323Z,20.70
2019-05-25T12:37:53.981Z,20.80
2019-05-25T12:40:22.683Z,20.90
2019-05-25T12:42:51.386Z,20.90
2019-05-25T12:45:20.110Z,21.00
2019-05-25T12:47:48.806Z,21.00
2019-05-25T12:50:18.003Z,21.10
2019-05-25T12:52:46.752Z,21.10
2019-05-25T12:55:15.624Z,21.00
2019-05-25T12:57:44.468Z,20.90
2019-05-25T13:00:16.157Z,21.00
2019-05-25T13:02:43.921Z,20.90
2019-05-25T13:05:12.908Z,20.80
2019-05-25T13:07:41.601Z,20.80
2019-05-25T13:10:10.542Z,20.80
2019-05-25T13:12:39.244Z,20.70
2019-05-25T13:15:08.122Z,20.70
2019-05-25T13:17:36.995Z,20.70
2019-05-25T13:20:07.621Z,20.60
2019-05-25T13:22:36.324Z,20.30
2019-05-25T13:25:07.282Z,20.60
2019-05-25T13:27:35.943Z,20.70
2019-05-25T13:30:06.463Z,20.70
2019-05-25T13:32:35.245Z,20.70
2019-05-25T13:35:08.025Z,21.00
2019-05-25T13:37:36.702Z,21.00
2019-05-25T13:40:07.054Z,21.20
2019-05-25T13:42:35.758Z,21.20
2019-05-25T13:45:07.191Z,21.20
2019-05-25T13:47:35.878Z,21.00
2019-05-25T13:50:07.876Z,21.00
2019-05-25T13:52:36.610Z,21.00
2019-05-25T13:55:06.914Z,21.30
2019-05-25T13:57:35.744Z,21.50
2019-05-25T14:00:06.356Z,21.60
2019-05-25T14:02:35.208Z,21.30
2019-05-25T14:05:05.816Z,21.20
2019-05-25T14:07:34.510Z,21.20
2019-05-25T14:10:04.391Z,21.20
2019-05-25T14:12:33.077Z,21.30
2019-05-25T14:15:01.873Z,21.30
2019-05-25T14:17:30.594Z,21.40
2019-05-25T14:19:59.494Z,21.60
2019-05-25T14:22:28.200Z,21.80
2019-05-25T14:24:56.870Z,21.90
2019-05-25T14:27:25.575Z,21.70
2019-05-25T14:29:54.238Z,21.70
2019-05-25T14:32:22.957Z,21.50
2019-05-25T14:34:51.708Z,21.40
2019-05-25T14:37:20.400Z,21.40
2019-05-25T14:39:49.194Z,21.40
2019-05-25T14:42:17.876Z,21.30
2019-05-25T14:44:46.594Z,21.20
2019-05-25T14:47:15.271Z,21.20
2019-05-25T14:49:44.031Z,21.20
2019-05-25T14:52:12.941Z,21.20
2019-05-25T14:54:41.808Z,21.20
2019-05-25T14:57:10.605Z,21.30
2019-05-25T14:59:39.281Z,21.50
2019-05-25T15:02:07.984Z,21.50
2019-05-25T15:04:36.686Z,21.50
2019-05-25T15:07:05.539Z,21.50
2019-05-25T15:09:34.468Z,21.50
2019-05-25T15:12:03.142Z,21.40
2019-05-25T15:14:31.839Z,21.50
2019-05-25T15:17:00.977Z,21.50
2019-05-25T15:19:30.013Z,21.50
2019-05-25T15:22:00.493Z,21.50
2019-05-25T15:24:29.275Z,21.60
2019-05-25T15:26:57.998Z,21.60
2019-05-25T15:29:26.752Z,21.60
2019-05-25T15:31:55.418Z,21.60
2019-05-25T15:34:24.239Z,21.80
2019-05-25T15:36:52.898Z,21.80
2019-05-25T15:39:21.569Z,21.80
2019-05-25T15:41:50.509Z,21.70
2019-05-25T15:44:19.208Z,21.60
2019-05-25T15:46:47.934Z,21.40
2019-05-25T15:49:16.691Z,21.50
2019-05-25T15:51:45.406Z,21.60
2019-05-25T15:54:14.139Z,21.70
2019-05-25T15:56:43.426Z,21.60
2019-05-25T15:59:12.146Z,21.50
2019-05-25T16:01:40.846Z,21.70
2019-05-25T16:04:09.555Z,21.80
2019-05-25T16:06:38.234Z,21.90
2019-05-25T16:09:08.068Z,21.90
2019-05-25T16:11:36.741Z,21.90
2019-05-25T16:14:07.587Z,21.70
2019-05-25T16:16:36.111Z,21.70
2019-05-25T16:19:05.431Z,21.70
2019-05-25T16:21:34.112Z,21.60
2019-05-25T16:24:02.805Z,21.50
2019-05-25T16:26:44.873Z,21.50
2019-05-25T16:29:01.864Z,21.40
2019-05-25T16:31:30.553Z,21.40
2019-05-25T16:33:59.218Z,21.50
2019-05-25T16:36:28.048Z,21.50
2019-05-25T16:38:56.752Z,21.60
2019-05-25T16:41:25.635Z,21.70
2019-05-25T16:43:54.300Z,21.70
2019-05-25T16:46:23.042Z,21.70
2019-05-25T16:48:51.776Z,21.90
2019-05-25T16:51:20.479Z,21.90
2019-05-25T16:53:49.182Z,21.90
2019-05-25T16:56:17.903Z,21.90
2019-05-25T16:58:46.619Z,21.90
2019-05-25T17:01:17.949Z,21.80
2019-05-25T17:03:45.870Z,21.70
2019-05-25T17:06:17.740Z,21.80
2019-05-25T17:08:46.407Z,22.00
2019-05-25T17:11:15.106Z,22.10
2019-05-25T17:13:43.953Z,22.10
2019-05-25T17:16:13.077Z,22.00
2019-05-25T17:18:41.952Z,22.00
2019-05-25T17:21:10.665Z,22.00
2019-05-25T17:23:40.295Z,21.90
2019-05-25T17:26:09.050Z,21.90
2019-05-25T17:28:37.978Z,21.90
2019-05-25T17:31:06.690Z,22.00
2019-05-25T17:33:45.606Z,21.80
2019-05-25T17:36:13.091Z,21.80
2019-05-25T17:38:42.134Z,21.80
2019-05-25T17:41:11.013Z,22.00
2019-05-25T17:43:39.831Z,22.00
2019-05-25T17:46:08.546Z,22.00
2019-05-25T17:48:37.273Z,21.90
2019-05-25T17:51:06.041Z,21.80
2019-05-25T17:53:34.733Z,21.70
2019-05-25T17:56:03.445Z,21.60
2019-05-25T17:58:32.187Z,21.60
2019-05-25T18:01:00.872Z,21.60
2019-05-25T18:03:29.622Z,21.70
2019-05-25T18:05:58.401Z,21.70
2019-05-25T18:08:27.081Z,21.70
2019-05-25T18:10:55.818Z,21.70
2019-05-25T18:13:24.486Z,21.70
2019-05-25T18:15:53.461Z,21.60
2019-05-25T18:18:22.277Z,21.60
2019-05-25T18:20:51.391Z,21.70
2019-05-25T18:23:20.407Z,21.70
2019-05-25T18:25:49.725Z,21.60
2019-05-25T18:28:18.591Z,21.50
2019-05-25T18:30:47.293Z,21.50
2019-05-25T18:33:16.063Z,21.50
2019-05-25T18:35:44.800Z,21.40
2019-05-25T18:38:13.472Z,21.50
2019-05-25T18:40:42.181Z,21.50
2019-05-25T18:43:10.870Z,21.50
2019-05-25T18:45:39.544Z,21.50
2019-05-25T18:48:08.579Z,21.50
2019-05-25T18:50:37.434Z,21.50
2019-05-25T18:53:06.135Z,21.50
2019-05-25T18:55:35.757Z,21.50
2019-05-25T18:58:04.432Z,21.60
2019-05-25T19:00:33.207Z,21.60
2019-05-25T19:03:02.257Z,21.60
2019-05-25T19:05:30.978Z,21.70
2019-05-25T19:07:59.675Z,21.70
2019-05-25T19:10:28.379Z,21.90
2019-05-25T19:12:57.054Z,21.90
2019-05-25T19:15:27.463Z,22.00
2019-05-25T19:17:56.152Z,22.10
2019-05-25T19:20:24.925Z,22.10
2019-05-25T19:22:53.784Z,22.00
2019-05-25T19:25:22.693Z,22.10
2019-05-25T19:27:51.418Z,22.00
2019-05-25T19:30:20.634Z,22.00
2019-05-25T19:32:49.311Z,22.00
2019-05-25T19:35:18.296Z,21.90
2019-05-25T19:37:47.010Z,21.90
2019-05-25T19:40:15.812Z,21.80
2019-05-25T19:42:44.553Z,21.70
2019-05-25T19:45:13.524Z,21.70
2019-05-25T19:47:42.410Z,21.60
2019-05-25T19:50:11.576Z,21.50
2019-05-25T19:52:40.394Z,21.40
2019-05-25T19:55:09.474Z,21.30
2019-05-25T19:57:38.260Z,21.30
2019-05-25T20:00:08.376Z,21.20
2019-05-25T20:02:37.032Z,21.10
2019-05-25T20:05:15.668Z,21.00
2019-05-25T20:07:37.735Z,21.00
2019-05-25T20:10:07.441Z,20.90
2019-05-25T20:12:36.131Z,20.90
2019-05-25T20:15:10.300Z,20.90
2019-05-25T20:17:39.005Z,20.80
2019-05-25T20:20:08.491Z,20.70
2019-05-25T20:22:37.196Z,20.60
2019-05-25T20:25:07.081Z,20.60
2019-05-25T20:27:35.770Z,20.50
2019-05-25T20:30:06.750Z,20.50
2019-05-25T20:32:35.475Z,20.40
2019-05-25T20:35:06.004Z,20.40
2019-05-25T20:37:34.673Z,20.30
2019-05-25T20:40:04.362Z,20.30
2019-05-25T20:42:33.284Z,20.20
2019-05-25T20:45:02.126Z,20.10
2019-05-25T20:47:31.030Z,20.10
2019-05-25T20:49:59.754Z,20.30
2019-05-25T20:52:28.431Z,20.10
2019-05-25T20:54:57.145Z,20.10
2019-05-25T20:57:25.838Z,20.00
2019-05-25T20:59:54.558Z,19.90
2019-05-25T21:02:23.215Z,19.90
2019-05-25T21:04:52.073Z,19.90
2019-05-25T21:07:20.824Z,19.80
2019-05-25T21:09:50.792Z,19.50
2019-05-25T21:12:19.458Z,19.70
2019-05-25T21:14:48.163Z,19.60
2019-05-25T21:17:16.909Z,19.60
2019-05-25T21:19:45.630Z,19.60
2019-05-25T21:22:14.383Z,19.40
2019-05-25T21:24:43.156Z,19.30
2019-05-25T21:27:11.834Z,19.30
2019-05-25T21:29:40.504Z,19.40
2019-05-25T21:32:09.327Z,19.20
2019-05-25T21:34:38.029Z,19.40
2019-05-25T21:37:06.794Z,19.40
2019-05-25T21:39:35.561Z,19.40
2019-05-25T21:42:23.487Z,19.40
2019-05-25T21:44:53.571Z,19.40
2019-05-25T21:47:22.272Z,19.30
2019-05-25T21:49:50.927Z,19.10
2019-05-25T21:52:19.623Z,19.30
2019-05-25T21:54:48.346Z,19.30
2019-05-25T21:57:17.067Z,19.10
2019-05-25T21:59:45.959Z,19.10
2019-05-25T22:02:14.625Z,19.00
2019-05-25T22:04:43.523Z,18.90
2019-05-25T22:07:12.213Z,18.90
2019-05-25T22:09:40.914Z,18.90
2019-05-25T22:12:09.636Z,19.10
2019-05-25T22:14:38.525Z,18.70
2019-05-25T22:17:07.202Z,18.60
2019-05-25T22:19:36.040Z,18.60
2019-05-25T22:22:04.986Z,18.60
2019-05-25T22:24:33.695Z,18.60
2019-05-25T22:27:02.373Z,18.50
2019-05-25T22:29:31.076Z,18.50
2019-05-25T22:32:00.061Z,18.40
2019-05-25T22:34:28.771Z,18.50
2019-05-25T22:36:57.459Z,18.20
2019-05-25T22:39:26.177Z,18.50
2019-05-25T22:41:54.831Z,18.30
2019-05-25T22:44:23.874Z,18.30
2019-05-25T22:46:52.774Z,18.40
2019-05-25T22:49:22.095Z,18.20
2019-05-25T22:51:50.773Z,18.20
2019-05-25T22:54:19.802Z,18.10
2019-05-25T22:56:48.482Z,18.10
2019-05-25T22:59:36.434Z,18.30
2019-05-25T23:02:05.200Z,18.10
2019-05-25T23:04:34.153Z,17.70
2019-05-25T23:07:02.918Z,17.80
2019-05-25T23:09:31.665Z,18.10
2019-05-25T23:12:00.543Z,17.80
2019-05-25T23:14:29.239Z,17.60
2019-05-25T23:16:58.061Z,17.90
2019-05-25T23:19:26.788Z,17.60
2019-05-25T23:21:55.440Z,17.90
2019-05-25T23:24:24.333Z,17.80
2019-05-25T23:26:52.993Z,17.70
2019-05-25T23:29:21.672Z,17.70
2019-05-25T23:31:50.359Z,17.50
2019-05-25T23:34:19.226Z,17.50
2019-05-25T23:36:47.916Z,17.50
2019-05-25T23:39:16.579Z,17.50
2019-05-25T23:41:45.335Z,17.50
2019-05-25T23:44:14.007Z,17.40
2019-05-25T23:46:42.740Z,17.40
2019-05-25T23:49:11.493Z,17.60
2019-05-25T23:51:40.206Z,17.30
2019-05-25T23:54:08.888Z,17.10
2019-05-25T23:56:37.578Z,17.30
2019-05-25T23:59:06.343Z,17.50
